Shinkai Maru — JJ4012 — position and weather

sailwx.info

Track history (hours):
 
Tides and Currents Weather Stations Pressure Air Temp Water Temp Dewpoint Dewpoint Depression Visibility Wind Speed Wind Dir Waves Ship Positions

Shinkai Maru

Last reported at 2014-Oct-30 13:31 UTC. Time now 2014-Oct-30 13:48 UTC.
Position N 35°27' E 139°43'.

Length 76 m; draft 3.4 m.

Type: Cargo ship. MMSI: 431301346.

Date/timePositionNaut miles runAvg speedWind from/ knotsBaromVisibWave heightAir tempDewpointWater temp
2014-Oct-30 13:31N 35°27' E 139°43'0 0.0
2014-Oct-30 12:31N 35°27' E 139°43'0 0.0
2014-Oct-30 11:28N 35°27' E 139°43'0 0.0
2014-Oct-30 10:31N 35°27' E 139°43'0 0.1
2014-Oct-30 09:31N 35°27' E 139°43'0 0.0
2014-Oct-30 08:31N 35°27' E 139°43'0 0.0
2014-Oct-30 07:31N 35°27' E 139°43'0 0.0
2014-Oct-30 06:28N 35°27' E 139°42'9 9.8
2014-Oct-30 05:32N 35°31' E 139°52'3 0.1
2014-Oct-29 06:21N 35°29' E 139°51'1012.0
2014-Oct-29 05:33N 35°21' E 139°45'244 9.3
2014-Oct-28 03:17N 34°14' E 134°59'1010.1
2014-Oct-28 02:17N 34°24' E 135°01'911.7
2014-Oct-28 01:32N 34°31' E 135°07'8 8.1
2014-Oct-28 00:32N 34°38' E 135°12'1 1.1
2014-Oct-27 23:33N 34°38' E 135°11'1110.3
2014-Oct-27 22:31N 34°37' E 134°58'8 0.3
2014-Oct-26 21:21N 34°41' E 134°50'4 0.1
2014-Oct-25 16:20N 34°38' E 134°52'8 9.8
2014-Oct-25 15:33N 34°37' E 135°02'10 9.8
2014-Oct-25 14:33N 34°27' E 135°03'2411.9
2014-Oct-25 12:32N 34°04' E 135°01'  
2014-Oct-23 04:11N 34°26' E 135°00'912.7
2014-Oct-23 03:30N 34°34' E 135°03'  
Track history (hours):
 
Tides and Currents Weather Stations Pressure Air Temp Water Temp Dewpoint Dewpoint Depression Visibility Wind Speed Wind Dir Waves Ship Positions

Shinkai Maru

Last reported at 2014-Oct-30 13:31 UTC. Time now 2014-Oct-30 13:48 UTC.
Position N 35°27' E 139°43'.

Length 76 m; draft 3.4 m.

Type: Cargo ship. MMSI: 431301346.

Date/timePositionNaut miles runAvg speedWind from/ knotsBaromVisibWave heightAir tempDewpointWater temp
2014-Oct-30 13:31N 35°27' E 139°43'0 0.0
2014-Oct-30 12:31N 35°27' E 139°43'0 0.0
2014-Oct-30 11:28N 35°27' E 139°43'0 0.0
2014-Oct-30 10:31N 35°27' E 139°43'0 0.1
2014-Oct-30 09:31N 35°27' E 139°43'0 0.0
2014-Oct-30 08:31N 35°27' E 139°43'0 0.0
2014-Oct-30 07:31N 35°27' E 139°43'0 0.0
2014-Oct-30 06:28N 35°27' E 139°42'9 9.8
2014-Oct-30 05:32N 35°31' E 139°52'3 0.1
2014-Oct-29 06:21N 35°29' E 139°51'1012.0
2014-Oct-29 05:33N 35°21' E 139°45'244 9.3
2014-Oct-28 03:17N 34°14' E 134°59'1010.1
2014-Oct-28 02:17N 34°24' E 135°01'911.7
2014-Oct-28 01:32N 34°31' E 135°07'8 8.1
2014-Oct-28 00:32N 34°38' E 135°12'1 1.1
2014-Oct-27 23:33N 34°38' E 135°11'1110.3
2014-Oct-27 22:31N 34°37' E 134°58'8 0.3
2014-Oct-26 21:21N 34°41' E 134°50'4 0.1
2014-Oct-25 16:20N 34°38' E 134°52'8 9.8
2014-Oct-25 15:33N 34°37' E 135°02'10 9.8
2014-Oct-25 14:33N 34°27' E 135°03'2411.9
2014-Oct-25 12:32N 34°04' E 135°01'  
2014-Oct-23 04:11N 34°26' E 135°00'912.7
2014-Oct-23 03:30N 34°34' E 135°03'  

Dump ship's entire track history